Cypress, Texas
Current Conditions -  °F | °C
As of 2:53 AM on Friday 31 Oct 2014 (Local Time) from KDWH Reporting Station
Overcast Overcast  
Wind Chill: 63°   Ceiling: 10000
Heat Index: 63°   Visibility: 10mi
Dew Point: 56°   Wind: 0mph
Humidity: 78%   Direction: NA
Pressure: 30.11"   Gusts: NA
Location:  29.97°N, 95.7°W
Report Text: KDWH 310753Z 00000KT 10SM SCT070 OVC100 17/13 A3011 RMK AO2 SLP193 T01720133
Loading
Personal Weather Stations






























Interactive Weather Map
Tropical Storm Tracking
New forecast layout! Learn more

10-Day Weather Forecast

Advertisements
Track Severe Weather on mobile